createdAt,value
2022-10-03T00:00:31.625Z,12.62
2022-10-03T00:03:22.969Z,12.68
2022-10-03T00:06:14.437Z,12.72
2022-10-03T00:08:56.200Z,12.50
2022-10-03T00:11:32.999Z,12.56
2022-10-03T00:14:10.148Z,12.58
2022-10-03T00:16:42.844Z,12.60
2022-10-03T00:19:35.590Z,12.55
2022-10-03T00:22:14.858Z,12.47
2022-10-03T00:24:44.658Z,12.62
2022-10-03T00:27:30.165Z,12.65
2022-10-03T00:30:04.701Z,12.56
2022-10-03T00:32:31.838Z,12.41
2022-10-03T00:35:23.802Z,12.49
2022-10-03T00:38:41.767Z,12.41
2022-10-03T00:41:14.514Z,12.34
2022-10-03T00:43:52.214Z,12.34
2022-10-03T00:46:30.669Z,12.36
2022-10-03T00:49:42.900Z,12.30
2022-10-03T00:52:40.469Z,12.41
2022-10-03T00:55:15.828Z,12.20
2022-10-03T00:58:05.739Z,12.36
2022-10-03T01:00:34.253Z,12.34
2022-10-03T01:03:21.933Z,12.34
2022-10-03T01:06:27.255Z,12.28
2022-10-03T01:09:06.962Z,12.08
2022-10-03T01:11:50.754Z,12.05
2022-10-03T01:14:58.381Z,12.06
2022-10-03T01:17:49.566Z,12.08
2022-10-03T01:20:29.755Z,12.06
2022-10-03T01:23:23.744Z,12.09
2022-10-03T01:25:57.269Z,12.02
2022-10-03T01:28:48.289Z,11.94
2022-10-03T01:31:18.950Z,11.85
2022-10-03T01:34:05.974Z,11.73
2022-10-03T01:36:43.291Z,11.68
2022-10-03T01:39:28.438Z,11.65
2022-10-03T01:42:05.766Z,11.57
2022-10-03T01:44:40.896Z,11.43
2022-10-03T01:47:26.320Z,11.34
2022-10-03T01:50:16.192Z,11.24
2022-10-03T01:53:13.652Z,11.12
2022-10-03T01:55:55.985Z,11.09
2022-10-03T01:58:28.888Z,11.06
2022-10-03T02:01:08.017Z,10.94
2022-10-03T02:03:55.223Z,10.75
2022-10-03T02:06:45.090Z,10.77
2022-10-03T02:09:34.953Z,10.27
2022-10-03T02:12:24.230Z,10.20
2022-10-03T02:15:09.513Z,10.38
2022-10-03T02:17:42.437Z,10.53
2022-10-03T02:20:29.493Z,10.56
2022-10-03T02:22:57.787Z,10.30
2022-10-03T02:25:35.752Z,10.30
2022-10-03T02:28:20.990Z,10.48
2022-10-03T02:31:32.473Z,10.02
2022-10-03T02:34:23.423Z,10.03
2022-10-03T02:37:08.415Z,10.33
2022-10-03T02:39:43.893Z,10.32
2022-10-03T02:42:32.181Z,10.27
2022-10-03T02:45:23.011Z,9.93
2022-10-03T02:48:31.384Z,9.92
2022-10-03T02:51:26.947Z,9.96
2022-10-03T02:54:17.527Z,10.25
2022-10-03T02:57:17.828Z,10.38
2022-10-03T03:00:12.390Z,10.23
2022-10-03T03:05:26.247Z,10.09
2022-10-03T03:08:11.479Z,9.93
2022-10-03T03:11:03.224Z,9.73
2022-10-03T03:13:42.035Z,9.77
2022-10-03T03:16:11.268Z,9.74
2022-10-03T03:18:44.778Z,9.66
2022-10-03T03:21:18.820Z,9.67
2022-10-03T03:23:56.784Z,9.74
2022-10-03T03:26:30.808Z,9.68
2022-10-03T03:29:12.853Z,9.64
2022-10-03T03:31:50.290Z,9.40
2022-10-03T03:34:34.998Z,9.45
2022-10-03T03:37:12.386Z,9.36
2022-10-03T03:39:52.026Z,9.25
2022-10-03T03:42:24.307Z,9.41
2022-10-03T03:45:02.950Z,9.28
2022-10-03T03:47:32.321Z,9.45
2022-10-03T03:50:20.392Z,9.38
2022-10-03T03:52:46.985Z,9.28
2022-10-03T03:55:24.337Z,9.20
2022-10-03T03:58:05.874Z,9.26
2022-10-03T04:00:48.119Z,9.22
2022-10-03T04:03:14.723Z,9.27
2022-10-03T04:05:50.347Z,9.28
2022-10-03T04:08:59.280Z,9.30
2022-10-03T04:11:37.997Z,9.32
2022-10-03T04:14:26.110Z,9.37
2022-10-03T04:17:48.443Z,9.32
2022-10-03T04:20:40.857Z,9.24
2022-10-03T04:23:51.014Z,9.21
2022-10-03T04:26:59.710Z,9.24
2022-10-03T04:29:48.118Z,9.29
2022-10-03T04:32:34.976Z,9.24
2022-10-03T04:35:28.618Z,9.20
2022-10-03T04:38:13.540Z,9.22
2022-10-03T04:41:05.162Z,9.25
2022-10-03T04:43:52.658Z,9.09
2022-10-03T04:46:51.040Z,9.15
2022-10-03T04:49:26.792Z,9.18
2022-10-03T04:52:17.231Z,9.18
2022-10-03T04:55:23.393Z,9.20
2022-10-03T04:57:55.475Z,9.00
2022-10-03T05:00:30.170Z,8.79
2022-10-03T05:03:16.633Z,8.79
2022-10-03T05:06:03.081Z,8.88
2022-10-03T05:08:50.113Z,8.91
2022-10-03T05:11:37.929Z,8.98
2022-10-03T05:14:12.205Z,8.96
2022-10-03T05:16:43.870Z,9.00
2022-10-03T05:19:22.748Z,8.98
2022-10-03T05:22:12.152Z,8.98
2022-10-03T05:25:02.404Z,8.90
2022-10-03T05:27:40.897Z,8.94
2022-10-03T05:30:20.058Z,8.82
2022-10-03T05:32:49.615Z,8.83
2022-10-03T05:35:27.829Z,8.78
2022-10-03T05:38:15.357Z,8.86
2022-10-03T05:40:49.576Z,8.78
2022-10-03T05:43:42.112Z,8.87
2022-10-03T05:46:21.551Z,8.87
2022-10-03T05:48:52.695Z,8.95
2022-10-03T05:51:39.649Z,8.99
2022-10-03T05:54:28.544Z,8.99
2022-10-03T05:57:09.220Z,9.00
2022-10-03T06:00:07.630Z,9.04
2022-10-03T06:02:34.313Z,9.02
2022-10-03T06:05:30.187Z,9.02
2022-10-03T06:08:20.111Z,9.05
2022-10-03T06:11:14.682Z,9.09
2022-10-03T06:13:48.454Z,9.05
2022-10-03T06:16:39.717Z,8.78
2022-10-03T06:19:15.475Z,8.70
2022-10-03T06:22:05.956Z,8.73
2022-10-03T06:24:49.456Z,8.73
2022-10-03T06:27:34.538Z,8.71
2022-10-03T06:30:21.917Z,8.62
2022-10-03T06:33:06.667Z,8.54
2022-10-03T06:36:08.045Z,8.55
2022-10-03T06:39:05.622Z,8.47
2022-10-03T06:42:29.540Z,8.70
2022-10-03T06:45:30.830Z,8.90
2022-10-03T06:48:01.851Z,8.78
2022-10-03T06:50:51.008Z,8.81
2022-10-03T06:53:20.453Z,8.77
2022-10-03T06:56:11.564Z,8.98
2022-10-03T06:58:42.181Z,9.21
2022-10-03T07:01:11.760Z,9.24
2022-10-03T07:03:59.809Z,9.13
2022-10-03T07:06:46.217Z,9.10
2022-10-03T07:09:44.739Z,9.08
2022-10-03T07:12:47.493Z,9.20
2022-10-03T07:18:57.888Z,9.31
2022-10-03T07:21:33.702Z,9.35
2022-10-03T07:24:21.818Z,9.40
2022-10-03T07:27:09.005Z,9.43
2022-10-03T07:29:58.606Z,9.58
2022-10-03T07:32:53.204Z,9.62
2022-10-03T07:35:51.812Z,9.65
2022-10-03T07:38:43.439Z,9.79
2022-10-03T07:41:33.151Z,9.89
2022-10-03T07:44:30.532Z,10.19
2022-10-03T07:47:28.041Z,10.37
2022-10-03T07:50:06.369Z,10.49
2022-10-03T07:53:01.184Z,10.73
2022-10-03T07:55:48.042Z,10.86
2022-10-03T07:58:20.212Z,10.94
2022-10-03T08:01:06.911Z,11.13
2022-10-03T08:03:52.212Z,11.18
2022-10-03T08:06:24.753Z,11.49
2022-10-03T08:09:18.249Z,11.62
2022-10-03T08:12:02.592Z,11.71
2022-10-03T08:14:36.701Z,11.81
2022-10-03T08:17:33.105Z,11.98
2022-10-03T08:20:17.934Z,12.25
2022-10-03T08:22:54.044Z,12.54
2022-10-03T08:25:45.642Z,12.80
2022-10-03T08:28:31.654Z,12.99
2022-10-03T08:31:04.430Z,13.11
2022-10-03T08:34:15.948Z,13.13
2022-10-03T08:37:01.441Z,13.07
2022-10-03T08:39:40.725Z,13.23
2022-10-03T08:42:30.489Z,13.31
2022-10-03T08:45:21.978Z,13.35
2022-10-03T08:48:18.995Z,13.44
2022-10-03T08:51:10.792Z,13.53
2022-10-03T08:53:56.003Z,13.48
2022-10-03T08:56:57.481Z,13.63
2022-10-03T08:59:27.033Z,13.75
2022-10-03T09:02:20.390Z,13.78
2022-10-03T09:05:27.979Z,13.89
2022-10-03T09:08:28.761Z,14.03
2022-10-03T09:11:33.781Z,13.92
2022-10-03T09:14:32.850Z,14.03
2022-10-03T09:17:23.599Z,14.11
2022-10-03T09:20:24.136Z,14.04
2022-10-03T09:23:09.656Z,14.33
2022-10-03T09:25:52.149Z,14.36
2022-10-03T09:28:40.880Z,14.40
2022-10-03T09:31:25.647Z,14.27
2022-10-03T09:33:55.462Z,14.29
2022-10-03T09:36:46.497Z,14.25
2022-10-03T09:39:13.057Z,14.22
2022-10-03T09:42:20.995Z,14.07
2022-10-03T09:45:24.836Z,13.96
2022-10-03T09:48:06.280Z,13.91
2022-10-03T09:50:59.197Z,13.97
2022-10-03T09:53:41.106Z,14.05
2022-10-03T09:56:26.200Z,14.09
2022-10-03T09:59:19.139Z,14.15
2022-10-03T10:01:54.817Z,14.18
2022-10-03T10:05:12.564Z,14.23
2022-10-03T10:08:02.710Z,14.26
2022-10-03T10:10:35.355Z,14.26
2022-10-03T10:13:14.214Z,14.30
2022-10-03T10:15:46.896Z,14.30
2022-10-03T10:18:49.982Z,14.26
2022-10-03T10:21:25.707Z,14.29
2022-10-03T10:24:46.832Z,14.25
2022-10-03T10:27:50.618Z,14.25
2022-10-03T10:30:41.900Z,14.19
2022-10-03T10:33:39.620Z,14.16
2022-10-03T10:36:43.803Z,14.11
2022-10-03T10:39:48.406Z,13.96
2022-10-03T10:42:45.985Z,13.95
2022-10-03T10:45:36.062Z,13.96
2022-10-03T10:48:39.203Z,14.03
2022-10-03T10:51:27.901Z,14.20
2022-10-03T10:54:15.488Z,14.29
2022-10-03T10:57:29.733Z,15.06
2022-10-03T11:00:31.174Z,15.43
2022-10-03T11:03:16.541Z,15.73
2022-10-03T11:05:55.131Z,16.14
2022-10-03T11:08:37.452Z,16.44
2022-10-03T11:11:29.646Z,16.70
2022-10-03T11:14:25.749Z,16.82
2022-10-03T11:17:01.404Z,17.18
2022-10-03T11:20:04.823Z,17.01
2022-10-03T11:22:37.577Z,17.25
2022-10-03T11:25:41.458Z,17.47
2022-10-03T11:28:10.934Z,17.95
2022-10-03T11:31:02.349Z,17.78
2022-10-03T11:33:50.646Z,17.65
2022-10-03T11:36:38.818Z,17.76
2022-10-03T11:39:15.503Z,17.66
2022-10-03T11:41:51.810Z,17.65
2022-10-03T11:44:42.284Z,17.55
2022-10-03T11:47:26.400Z,17.35
2022-10-03T11:50:27.168Z,17.23
2022-10-03T11:52:59.781Z,17.12
2022-10-03T11:55:32.486Z,16.86
2022-10-03T11:58:24.546Z,17.09
2022-10-03T12:01:11.345Z,17.35
2022-10-03T12:03:49.455Z,17.53
2022-10-03T12:06:44.930Z,17.60
2022-10-03T12:09:14.361Z,17.63
2022-10-03T12:12:00.997Z,17.79
2022-10-03T12:14:30.280Z,17.79
2022-10-03T12:17:00.214Z,17.79
2022-10-03T12:19:49.360Z,18.13
2022-10-03T12:22:22.908Z,18.34
2022-10-03T12:24:50.218Z,18.43
2022-10-03T12:27:44.957Z,18.39
2022-10-03T12:30:16.463Z,18.44
2022-10-03T12:33:04.295Z,18.30
2022-10-03T12:35:50.710Z,18.08
2022-10-03T12:38:33.881Z,18.02
2022-10-03T12:41:18.225Z,18.18
2022-10-03T12:44:07.813Z,18.27
2022-10-03T12:46:43.190Z,18.20
2022-10-03T12:49:17.333Z,18.53
2022-10-03T12:51:58.541Z,18.91
2022-10-03T12:54:50.445Z,19.00
2022-10-03T12:57:41.319Z,19.35
2022-10-03T13:00:21.035Z,19.72
2022-10-03T13:03:02.655Z,19.79
2022-10-03T13:05:56.388Z,19.76
2022-10-03T13:08:42.798Z,19.50
2022-10-03T13:11:30.813Z,19.31
2022-10-03T13:14:21.917Z,19.11
2022-10-03T13:17:17.556Z,18.97
2022-10-03T13:19:51.428Z,18.57
2022-10-03T13:22:36.200Z,18.68
2022-10-03T13:25:24.485Z,19.19
2022-10-03T13:28:07.907Z,19.50
2022-10-03T13:30:49.739Z,19.64
2022-10-03T13:33:21.220Z,19.64
2022-10-03T13:36:00.344Z,19.87
2022-10-03T13:39:26.103Z,20.28
2022-10-03T13:42:19.461Z,20.54
2022-10-03T13:44:56.696Z,20.58
2022-10-03T13:47:43.961Z,20.59
2022-10-03T13:50:27.219Z,20.72
2022-10-03T13:53:01.177Z,20.83
2022-10-03T13:55:55.093Z,20.88
2022-10-03T13:58:41.334Z,21.17
2022-10-03T14:01:14.594Z,21.55
2022-10-03T14:04:11.740Z,21.84
2022-10-03T14:06:58.037Z,22.11
2022-10-03T14:09:31.549Z,22.17
2022-10-03T14:12:28.160Z,22.19
2022-10-03T14:15:36.378Z,22.12
2022-10-03T14:18:08.998Z,22.05
2022-10-03T14:20:42.941Z,22.06
2022-10-03T14:23:15.852Z,21.88
2022-10-03T14:25:51.457Z,21.65
2022-10-03T14:28:27.029Z,21.49
2022-10-03T14:31:10.609Z,21.07
2022-10-03T14:33:54.931Z,21.06
2022-10-03T14:36:46.020Z,21.15
2022-10-03T14:39:25.892Z,21.08
2022-10-03T14:41:52.477Z,20.90
2022-10-03T14:44:35.754Z,20.73
2022-10-03T14:47:08.362Z,20.62
2022-10-03T14:49:57.892Z,20.40
2022-10-03T14:52:27.063Z,20.02
2022-10-03T14:54:55.960Z,19.87
2022-10-03T14:57:39.654Z,19.73
2022-10-03T15:00:55.475Z,19.48
2022-10-03T15:03:28.816Z,19.28
2022-10-03T15:06:20.389Z,19.21
2022-10-03T15:08:50.690Z,19.46
2022-10-03T15:11:24.355Z,19.73
2022-10-03T15:14:17.028Z,19.36
2022-10-03T15:16:51.806Z,19.12
2022-10-03T15:19:23.021Z,18.95
2022-10-03T15:21:52.394Z,18.78
2022-10-03T15:24:31.809Z,18.52
2022-10-03T15:27:12.866Z,18.29
2022-10-03T15:29:39.935Z,18.02
2022-10-03T15:32:11.051Z,17.85
2022-10-03T15:34:41.207Z,17.78
2022-10-03T15:37:17.875Z,17.74
2022-10-03T15:39:45.904Z,17.61
2022-10-03T15:42:18.271Z,17.53
2022-10-03T15:45:00.469Z,17.37
2022-10-03T15:47:29.054Z,17.35
2022-10-03T15:50:00.527Z,17.33
2022-10-03T15:52:42.292Z,17.04
2022-10-03T15:55:16.772Z,16.93
2022-10-03T15:57:47.118Z,16.85
2022-10-03T16:00:31.177Z,16.78
2022-10-03T16:03:06.393Z,16.50
2022-10-03T16:05:33.706Z,16.64
2022-10-03T16:08:06.967Z,16.52
2022-10-03T16:10:39.928Z,16.46
2022-10-03T16:13:18.832Z,16.37
2022-10-03T16:16:11.321Z,16.45
2022-10-03T16:18:48.396Z,16.25
2022-10-03T16:21:31.998Z,16.19
2022-10-03T16:24:00.054Z,15.95
2022-10-03T16:26:34.814Z,15.91
2022-10-03T16:29:02.772Z,15.84
2022-10-03T16:31:45.329Z,15.77
2022-10-03T16:34:16.750Z,15.56
2022-10-03T16:36:46.313Z,15.44
2022-10-03T16:39:34.665Z,15.14
2022-10-03T16:42:11.504Z,15.06
2022-10-03T16:44:55.548Z,14.83
2022-10-03T16:47:33.271Z,14.73
2022-10-03T16:50:18.918Z,14.48
2022-10-03T16:52:48.670Z,14.44
2022-10-03T16:55:18.791Z,14.31
2022-10-03T16:57:56.029Z,14.20
2022-10-03T17:01:22.238Z,13.88
2022-10-03T17:03:47.548Z,13.69
2022-10-03T17:06:23.986Z,13.61
2022-10-03T17:08:52.810Z,13.59
2022-10-03T17:11:22.004Z,13.53
2022-10-03T17:13:51.588Z,13.38
2022-10-03T17:16:27.769Z,13.33
2022-10-03T17:19:08.421Z,13.21
2022-10-03T17:21:38.805Z,13.02
2022-10-03T17:24:11.653Z,12.98
2022-10-03T17:26:46.349Z,12.92
2022-10-03T17:29:35.094Z,12.79
2022-10-03T17:32:05.950Z,12.75
2022-10-03T17:34:35.026Z,12.80
2022-10-03T17:37:20.952Z,12.78
2022-10-03T17:39:50.170Z,12.77
2022-10-03T17:42:28.445Z,12.65
2022-10-03T17:45:03.893Z,12.66
2022-10-03T17:47:44.048Z,12.60
2022-10-03T17:50:35.867Z,12.51
2022-10-03T17:53:02.729Z,12.46
2022-10-03T17:55:32.634Z,12.29
2022-10-03T17:58:19.987Z,12.26
2022-10-03T18:00:46.590Z,12.18
2022-10-03T18:03:19.548Z,12.00
2022-10-03T18:05:47.907Z,12.04
2022-10-03T18:08:19.432Z,11.80
2022-10-03T18:10:52.373Z,11.87
2022-10-03T18:13:24.141Z,11.70
2022-10-03T18:16:20.397Z,11.62
2022-10-03T18:19:00.232Z,11.58
2022-10-03T18:21:39.129Z,11.50
2022-10-03T18:24:36.790Z,11.48
2022-10-03T18:27:28.137Z,11.37
2022-10-03T18:30:15.842Z,11.32
2022-10-03T18:32:45.701Z,11.16
2022-10-03T18:35:22.332Z,11.10
2022-10-03T18:38:05.928Z,11.03
2022-10-03T18:40:42.187Z,10.91
2022-10-03T18:43:23.250Z,10.88
2022-10-03T18:45:55.332Z,10.80
2022-10-03T18:48:32.770Z,10.78
2022-10-03T18:51:07.901Z,10.64
2022-10-03T18:53:38.288Z,10.66
2022-10-03T18:56:34.410Z,10.67
2022-10-03T18:59:00.985Z,10.63
2022-10-03T19:01:41.125Z,10.51
2022-10-03T19:04:10.010Z,10.43
2022-10-03T19:06:39.143Z,10.35
2022-10-03T19:09:16.009Z,10.32
2022-10-03T19:12:06.303Z,10.30
2022-10-03T19:14:38.483Z,10.25
2022-10-03T19:17:31.027Z,10.10
2022-10-03T19:20:00.671Z,10.06
2022-10-03T19:22:34.062Z,10.01
2022-10-03T19:25:04.232Z,9.99
2022-10-03T19:27:52.396Z,9.98
2022-10-03T19:30:24.455Z,9.85
2022-10-03T19:32:58.932Z,9.84
2022-10-03T19:35:26.166Z,9.71
2022-10-03T19:37:55.668Z,9.73
2022-10-03T19:40:40.903Z,9.65
2022-10-03T19:43:41.350Z,9.44
2022-10-03T19:46:22.858Z,9.36
2022-10-03T19:49:15.922Z,9.34
2022-10-03T19:51:42.566Z,9.29
2022-10-03T19:54:26.714Z,9.23
2022-10-03T19:56:53.826Z,9.31
2022-10-03T19:59:36.905Z,9.31
2022-10-03T20:02:05.773Z,9.25
2022-10-03T20:04:36.497Z,9.32
2022-10-03T20:07:42.493Z,8.96
2022-10-03T20:10:12.057Z,8.86
2022-10-03T20:12:43.672Z,8.72
2022-10-03T20:15:23.636Z,8.77
2022-10-03T20:17:52.737Z,8.87
2022-10-03T20:20:22.750Z,8.90
2022-10-03T20:22:49.814Z,8.87
2022-10-03T20:25:39.616Z,8.71
2022-10-03T20:28:08.906Z,8.61
2022-10-03T20:30:45.884Z,8.58
2022-10-03T20:33:23.696Z,8.60
2022-10-03T20:36:23.230Z,8.63
2022-10-03T20:39:05.058Z,8.62
2022-10-03T20:42:05.035Z,8.61
2022-10-03T20:44:39.657Z,8.39
2022-10-03T20:47:10.122Z,8.43
2022-10-03T20:49:40.737Z,8.42
2022-10-03T20:52:15.441Z,8.38
2022-10-03T20:54:53.229Z,8.36
2022-10-03T20:57:26.176Z,8.28
2022-10-03T20:59:56.150Z,8.24
2022-10-03T21:02:37.288Z,8.16
2022-10-03T21:05:20.673Z,8.06
2022-10-03T21:07:50.681Z,8.05
2022-10-03T21:10:17.410Z,7.99
2022-10-03T21:12:47.754Z,7.94
2022-10-03T21:15:53.867Z,7.91
2022-10-03T21:18:27.147Z,7.95
2022-10-03T21:21:25.760Z,7.91
2022-10-03T21:24:17.054Z,7.82
2022-10-03T21:26:47.949Z,7.86
2022-10-03T21:29:18.685Z,7.84
2022-10-03T21:31:54.377Z,7.83
2022-10-03T21:34:32.414Z,7.83
2022-10-03T21:37:18.538Z,7.80
2022-10-03T21:39:48.081Z,7.82
2022-10-03T21:43:07.013Z,7.72
2022-10-03T21:45:55.035Z,7.63
2022-10-03T21:48:47.600Z,7.63
2022-10-03T21:51:41.569Z,7.50
2022-10-03T21:54:35.751Z,7.46
2022-10-03T21:57:27.089Z,7.45
2022-10-03T22:00:12.020Z,7.36
2022-10-03T22:02:42.485Z,7.37
2022-10-03T22:05:42.055Z,7.25
2022-10-03T22:08:24.705Z,7.27
2022-10-03T22:11:18.628Z,7.19
2022-10-03T22:14:00.122Z,7.05
2022-10-03T22:16:36.435Z,7.05
2022-10-03T22:19:11.146Z,7.08
2022-10-03T22:21:43.479Z,7.15
2022-10-03T22:24:29.345Z,7.24
2022-10-03T22:27:04.169Z,7.22
2022-10-03T22:29:39.595Z,7.16
2022-10-03T22:32:46.704Z,7.28
2022-10-03T22:35:22.936Z,7.28
2022-10-03T22:37:49.744Z,7.17
2022-10-03T22:40:16.470Z,7.26
2022-10-03T22:42:45.869Z,7.23
2022-10-03T22:45:13.301Z,7.05
2022-10-03T22:47:40.905Z,6.94
2022-10-03T22:50:10.854Z,6.85
2022-10-03T22:52:43.310Z,6.86
2022-10-03T22:55:12.741Z,6.80
2022-10-03T22:57:43.141Z,6.85
2022-10-03T23:00:12.545Z,6.81
2022-10-03T23:02:45.302Z,6.87
2022-10-03T23:05:15.731Z,6.90
2022-10-03T23:07:54.363Z,6.93
2022-10-03T23:10:32.763Z,6.89
2022-10-03T23:13:15.292Z,6.75
2022-10-03T23:15:44.055Z,6.80
2022-10-03T23:18:21.883Z,6.76
2022-10-03T23:20:48.459Z,6.69
2022-10-03T23:23:19.916Z,6.53
2022-10-03T23:26:04.711Z,6.64
2022-10-03T23:29:00.705Z,6.71
2022-10-03T23:31:53.552Z,6.56
2022-10-03T23:34:37.759Z,6.36
2022-10-03T23:37:24.551Z,6.36
2022-10-03T23:39:54.548Z,6.32
2022-10-03T23:42:21.142Z,6.40
2022-10-03T23:44:50.665Z,6.43
2022-10-03T23:47:20.223Z,6.53
2022-10-03T23:49:49.156Z,6.54
2022-10-03T23:52:40.109Z,6.54
2022-10-03T23:55:08.393Z,6.51
2022-10-03T23:57:37.441Z,6.38
